Time;durP1;ratioP1;P1;durP2;ratioP2;P2;SDS_P1;SDS_P2;PMS_P1;PMS_P2;Temp;Humidity;BMP_temperature;BMP_pressure;BME280_temperature;BME280_humidity;BME280_pressure;Samples;Min_cycle;Max_cycle;Signal;HPM_P1;HPM_P2
2023/08/02 00:01:51;;;;;;;1.45;0.80;;;;;;;21.14;87.86;99750.31;21012874;28;20098;-66
2023/08/02 00:11:53;;;;;;;1.63;0.73;;;;;;;21.13;87.76;99743.22;21010958;28;20455;-66
2023/08/02 00:21:55;;;;;;;1.92;0.90;;;;;;;21.12;87.80;99719.91;21010316;28;20086;-66
2023/08/02 00:31:57;;;;;;;1.33;0.70;;;;;;;21.10;87.84;99724.66;21004157;28;20040;-66
2023/08/02 00:41:58;;;;;;;2.13;1.05;;;;;;;21.09;87.60;99725.69;20985976;28;20098;-66
2023/08/02 00:52:01;;;;;;;3.10;0.90;;;;;;;21.07;87.65;99712.38;21030345;28;20407;-66
2023/08/02 01:02:04;;;;;;;1.50;0.80;;;;;;;21.07;87.51;99711.50;20988928;28;20424;-66
2023/08/02 01:12:10;;;;;;;1.60;0.80;;;;;;;21.04;87.50;99720.84;20974876;28;20059;-66
2023/08/02 01:22:12;;;;;;;2.80;0.80;;;;;;;21.04;87.39;99704.63;20986642;28;20032;-66
2023/08/02 01:32:15;;;;;;;1.80;0.75;;;;;;;21.03;87.32;99700.25;20991892;28;20512;-66
2023/08/02 01:42:18;;;;;;;1.25;0.93;;;;;;;21.02;87.33;99693.16;20990460;28;20045;-66
2023/08/02 01:52:19;;;;;;;2.67;1.20;;;;;;;21.00;87.17;99678.97;21003491;28;20048;-66
2023/08/02 02:02:22;;;;;;;3.25;1.10;;;;;;;20.97;87.23;99658.53;20987267;28;20392;-66
2023/08/02 02:12:26;;;;;;;1.42;1.08;;;;;;;20.98;87.24;99643.97;20961560;28;20041;-66
2023/08/02 02:22:27;;;;;;;2.22;0.98;;;;;;;20.95;87.11;99624.56;20999156;28;20072;-66
2023/08/02 02:32:29;;;;;;;2.50;1.20;;;;;;;20.94;87.17;99604.78;20985960;28;20075;-66
2023/08/02 02:42:31;;;;;;;1.95;0.98;;;;;;;20.94;87.33;99585.00;21005707;28;20572;-66
2023/08/02 02:52:34;;;;;;;2.20;0.98;;;;;;;20.93;87.23;99581.47;21006710;28;20049;-66
2023/08/02 03:02:36;;;;;;;1.42;1.02;;;;;;;20.92;87.21;99560.00;20984557;28;20630;-66
2023/08/02 03:12:38;;;;;;;2.83;1.00;;;;;;;20.91;87.00;99558.31;20978919;28;20060;-66
2023/08/02 03:22:39;;;;;;;2.75;1.38;;;;;;;20.89;86.89;99539.59;20983186;28;20601;-66
2023/08/02 03:32:41;;;;;;;2.53;1.27;;;;;;;20.88;86.93;99540.63;20989073;28;20097;-66
2023/08/02 03:42:43;;;;;;;2.22;1.33;;;;;;;20.86;86.37;99532.69;20996707;28;20411;-66
2023/08/02 03:52:44;;;;;;;4.05;1.42;;;;;;;20.85;86.28;99520.19;20992200;28;20066;-66
2023/08/02 04:02:46;;;;;;;2.03;1.33;;;;;;;20.85;86.20;99514.78;20986272;28;20187;-66
2023/08/02 04:12:51;;;;;;;2.55;1.30;;;;;;;20.83;86.00;99489.78;21013200;28;20040;-66
2023/08/02 04:22:52;;;;;;;1.83;1.20;;;;;;;20.82;85.85;99474.59;20990019;28;20040;-66
2023/08/02 04:32:55;;;;;;;4.28;1.90;;;;;;;20.81;85.83;99474.81;20993887;28;20028;-66
2023/08/02 04:42:57;;;;;;;2.97;1.67;;;;;;;20.81;85.68;99461.28;20998198;28;20040;-66
2023/08/02 04:52:58;;;;;;;2.63;1.60;;;;;;;20.79;85.15;99439.00;20980346;28;20092;-66
2023/08/02 05:03:02;;;;;;;4.50;1.85;;;;;;;20.77;86.13;99414.78;21000723;28;20507;-65
2023/08/02 05:13:05;;;;;;;5.50;1.90;;;;;;;20.82;86.63;99411.56;21003028;28;20044;-66
2023/08/02 05:23:07;;;;;;;3.67;1.40;;;;;;;20.84;87.75;99393.28;20997785;28;20219;-66
2023/08/02 05:33:09;;;;;;;2.30;1.60;;;;;;;20.85;87.34;99360.59;21000613;28;20041;-66
2023/08/02 05:43:11;;;;;;;6.25;1.33;;;;;;;20.85;87.62;99348.97;20995508;28;20401;-64
2023/08/02 05:53:12;;;;;;;3.53;2.05;;;;;;;20.84;87.29;99312.94;21007785;28;20037;-65
2023/08/02 06:03:14;;;;;;;3.08;1.67;;;;;;;20.85;87.90;99303.00;21005925;28;20040;-65
2023/08/02 06:13:16;;;;;;;3.08;1.60;;;;;;;20.87;88.42;99290.09;21026668;28;20059;-66
2023/08/02 06:23:17;;;;;;;2.78;1.50;;;;;;;20.90;88.96;99259.09;20986266;28;20059;-67
2023/08/02 06:33:19;;;;;;;3.58;1.60;;;;;;;20.90;89.22;99273.47;21016945;28;20135;-66
2023/08/02 06:43:21;;;;;;;5.18;1.80;;;;;;;20.89;90.08;99244.75;20984038;28;20102;-68
2023/08/02 06:53:24;;;;;;;4.72;1.77;;;;;;;20.90;90.91;99245.59;20974927;28;20040;-70
2023/08/02 07:03:26;;;;;;;5.28;1.80;;;;;;;20.91;91.28;99233.72;20979314;28;20045;-68
2023/08/02 07:13:27;;;;;;;3.58;1.60;;;;;;;20.89;90.59;99228.53;20974890;28;20037;-68
2023/08/02 07:23:29;;;;;;;3.28;1.42;;;;;;;20.88;90.18;99194.41;20990542;28;20048;-68
2023/08/02 07:33:31;;;;;;;2.42;1.20;;;;;;;20.88;90.04;99189.00;20982781;28;20131;-67
2023/08/02 07:43:33;;;;;;;4.28;1.88;;;;;;;20.72;90.74;99153.06;21015212;28;20102;-68
2023/08/02 07:53:35;;;;;;;3.95;1.50;;;;;;;20.86;90.93;99153.19;21021073;28;20052;-68
2023/08/02 08:03:38;;;;;;;3.47;1.55;;;;;;;20.86;90.77;99121.56;21037415;28;20055;-67
2023/08/02 08:13:41;;;;;;;3.33;1.63;;;;;;;20.73;90.38;99097.13;20991008;28;20080;-67
2023/08/02 08:23:43;;;;;;;2.75;1.40;;;;;;;20.85;89.98;99075.78;20997131;28;20554;-66
2023/08/02 08:33:44;;;;;;;2.92;1.15;;;;;;;20.85;90.21;99043.34;21034015;28;20040;-66
2023/08/02 08:43:46;;;;;;;2.35;1.20;;;;;;;20.86;90.50;99026.06;20965538;28;20113;-66
2023/08/02 08:53:48;;;;;;;2.95;1.65;;;;;;;20.87;90.44;99008.81;20955407;28;20043;-66
2023/08/02 09:03:50;;;;;;;2.30;1.33;;;;;;;20.88;89.88;99009.63;20964527;28;20123;-64
2023/08/02 09:14:10;;;;;;;3.08;1.30;;;;;;;20.88;90.14;98996.09;20974040;28;20057;-64
2023/08/02 09:24:11;;;;;;;3.92;1.42;;;;;;;20.88;91.58;98945.56;20961617;28;20052;-64
2023/08/02 09:34:13;;;;;;;2.50;1.60;;;;;;;20.90;92.33;98911.03;20963975;28;20504;-64
2023/08/02 09:44:21;;;;;;;2.42;1.38;;;;;;;20.95;91.55;98900.44;20975063;28;20048;-65
2023/08/02 09:54:23;;;;;;;4.22;1.25;;;;;;;20.98;91.00;98877.53;20990152;28;20060;-67
2023/08/02 10:04:25;;;;;;;5.78;1.65;;;;;;;20.98;91.72;98864.84;20990041;28;20045;-67
2023/08/02 10:14:30;;;;;;;10.05;1.80;;;;;;;21.05;92.04;98843.22;20993025;28;20041;-68
2023/08/02 10:24:31;;;;;;;2.58;1.20;;;;;;;21.12;92.91;98817.00;21008424;28;20197;-70
2023/08/02 10:34:36;;;;;;;2.60;1.10;;;;;;;21.18;92.44;98788.25;20973185;28;20553;-70
2023/08/02 10:44:55;;;;;;;3.10;1.20;;;;;;;21.20;92.05;98786.16;20983987;28;20033;-68
2023/08/02 10:55:17;;;;;;;3.05;1.38;;;;;;;21.23;91.96;98772.25;20984581;28;20554;-68
2023/08/02 11:05:40;;;;;;;1.80;1.27;;;;;;;21.27;91.97;98749.13;20979052;28;20047;-67
2023/08/02 11:15:42;;;;;;;3.15;1.30;;;;;;;21.32;94.63;98737.66;20968881;28;20045;-67
2023/08/02 11:25:47;;;;;;;9.55;1.88;;;;;;;21.40;97.32;98731.19;20978613;28;20041;-67
2023/08/02 11:36:09;;;;;;;1.85;1.00;;;;;;;21.44;97.54;98714.34;20986623;28;20056;-68
2023/08/02 11:46:23;;;;;;;2.28;1.33;;;;;;;21.54;97.71;98673.25;20974505;28;20423;-68
2023/08/02 11:56:27;;;;;;;3.13;1.30;;;;;;;21.69;97.86;98674.91;20997338;28;20066;-66
2023/08/02 12:06:51;;;;;;;3.87;1.20;;;;;;;21.78;98.77;98656.50;20978852;28;20029;-70
2023/08/02 12:16:53;;;;;;;4.90;1.27;;;;;;;21.81;98.76;98635.25;20976387;28;20047;-66
2023/08/02 12:26:55;;;;;;;5.65;1.27;;;;;;;21.90;98.88;98622.28;20988442;28;20096;-65
2023/08/02 12:36:59;;;;;;;2.58;1.00;;;;;;;22.03;99.91;98607.78;20967177;28;20083;-66
2023/08/02 12:47:01;;;;;;;;;;;;;;;22.06;98.32;98610.06;20962079;28;20113;-66
2023/08/02 12:57:04;;;;;;;1.42;0.88;;;;;;;22.11;98.23;98564.19;20974815;28;20007;-64
2023/08/02 13:07:06;;;;;;;3.55;1.30;;;;;;;22.17;98.69;98562.47;20961333;28;20526;-64
2023/08/02 13:17:07;;;;;;;1.98;0.90;;;;;;;22.25;98.49;98547.81;20961633;28;20129;-67
2023/08/02 13:27:09;;;;;;;1.27;0.80;;;;;;;22.26;97.71;98538.63;20980979;28;20068;-64
2023/08/02 13:37:11;;;;;;;1.65;1.00;;;;;;;22.22;97.35;98526.56;21001025;28;20036;-65
2023/08/02 13:47:13;;;;;;;2.75;0.90;;;;;;;22.11;97.23;98537.09;20996031;28;20048;-66
2023/08/02 13:57:14;;;;;;;1.20;0.82;;;;;;;21.98;97.45;98538.03;20984790;28;20548;-66
2023/08/02 14:07:16;;;;;;;1.75;1.17;;;;;;;21.94;97.92;98539.53;20979657;28;20052;-66
2023/08/02 14:17:18;;;;;;;1.65;1.10;;;;;;;21.95;97.46;98533.06;20983383;28;20058;-66
2023/08/02 14:27:20;;;;;;;0.70;0.70;;;;;;;21.99;97.50;98552.41;20984232;28;20506;-66
2023/08/02 14:37:22;;;;;;;0.70;0.60;;;;;;;22.00;97.38;98546.78;21003655;28;20060;-65
2023/08/02 14:47:23;;;;;;;1.42;0.80;;;;;;;22.03;97.55;98526.53;20982779;28;20056;-65
2023/08/02 14:57:25;;;;;;;1.83;0.80;;;;;;;22.03;97.29;98540.06;20987013;28;20041;-66
2023/08/02 15:07:27;;;;;;;2.72;0.80;;;;;;;22.00;96.94;98535.09;20981089;28;20110;-66
2023/08/02 15:17:30;;;;;;;3.17;1.08;;;;;;;22.04;96.49;98540.91;20970456;28;20040;-59
2023/08/02 15:27:32;;;;;;;6.28;1.00;;;;;;;21.96;96.32;98542.84;20984356;28;20044;-59
2023/08/02 15:37:34;;;;;;;1.23;0.50;;;;;;;21.92;95.82;98562.47;20980335;28;20044;-59
2023/08/02 15:47:36;;;;;;;2.05;0.70;;;;;;;21.87;95.64;98546.84;20967598;28;20054;-58
2023/08/02 15:57:38;;;;;;;1.08;0.57;;;;;;;21.84;95.16;98561.69;20975040;28;20614;-60
2023/08/02 16:07:39;;;;;;;1.33;0.60;;;;;;;21.82;94.46;98563.78;20981408;28;20055;-59
2023/08/02 16:17:41;;;;;;;2.95;0.80;;;;;;;21.75;94.11;98554.88;20960750;28;20535;-60
2023/08/02 16:27:43;;;;;;;2.40;0.80;;;;;;;21.81;95.15;98569.41;20981142;28;20538;-64
2023/08/02 16:37:45;;;;;;;1.58;0.70;;;;;;;21.88;96.75;98557.47;20990368;28;20120;-62
2023/08/02 16:47:47;;;;;;;1.83;0.60;;;;;;;21.93;96.18;98553.28;20967179;28;20135;-62
2023/08/02 16:57:48;;;;;;;1.17;0.50;;;;;;;21.93;95.76;98540.59;20996957;28;20051;-61
2023/08/02 17:07:50;;;;;;;1.85;0.68;;;;;;;21.92;94.70;98538.09;20989861;28;20126;-62
2023/08/02 17:17:52;;;;;;;2.60;0.60;;;;;;;21.91;94.17;98560.81;21002082;28;20515;-62
2023/08/02 17:27:53;;;;;;;2.15;0.50;;;;;;;21.86;93.36;98573.13;21011108;28;20048;-60
2023/08/02 17:37:58;;;;;;;2.83;0.77;;;;;;;21.82;92.73;98563.78;21013775;28;20133;-59
2023/08/02 17:48:00;;;;;;;1.63;0.65;;;;;;;21.74;91.67;98574.88;21009937;28;20048;-59
2023/08/02 17:58:01;;;;;;;2.28;0.88;;;;;;;21.69;91.43;98582.84;21019979;28;20040;-59
2023/08/02 18:08:04;;;;;;;1.52;0.73;;;;;;;21.65;91.21;98570.75;21024119;28;20130;-60
2023/08/02 18:18:05;;;;;;;4.03;0.70;;;;;;;21.58;91.42;98585.13;20999207;28;20059;-60
2023/08/02 18:28:07;;;;;;;5.03;0.90;;;;;;;21.56;91.03;98602.66;21005394;28;20047;-60
2023/08/02 18:38:10;;;;;;;2.50;0.90;;;;;;;21.52;90.32;98621.19;20998418;28;20071;-60
2023/08/02 18:48:14;;;;;;;1.73;0.70;;;;;;;21.48;90.12;98622.69;21028093;28;20451;-60
2023/08/02 18:58:18;;;;;;;1.63;0.88;;;;;;;21.45;89.68;98628.53;21055339;28;20052;-60
2023/08/02 19:08:20;;;;;;;2.77;0.77;;;;;;;21.41;89.39;98641.66;21005703;28;20128;-60
2023/08/02 19:18:21;;;;;;;2.65;0.95;;;;;;;21.39;88.98;98648.34;20990590;28;20298;-60
2023/08/02 19:28:23;;;;;;;2.47;0.82;;;;;;;21.35;89.20;98658.75;20993701;28;20041;-60
2023/08/02 19:38:25;;;;;;;2.80;0.77;;;;;;;21.33;89.22;98660.03;20986068;28;20408;-60
2023/08/02 19:48:27;;;;;;;1.95;0.80;;;;;;;21.28;89.05;98658.78;20994423;28;20105;-60
2023/08/02 19:58:28;;;;;;;2.00;0.88;;;;;;;21.27;89.29;98673.38;20977502;28;20062;-60
2023/08/02 20:08:34;;;;;;;1.25;0.55;;;;;;;21.25;89.15;98675.47;20988035;28;20322;-60
2023/08/02 20:18:36;;;;;;;2.17;0.80;;;;;;;21.23;89.37;98676.69;20998692;28;20089;-60
2023/08/02 20:28:42;;;;;;;2.78;0.80;;;;;;;21.22;89.52;98659.66;20989302;28;20141;-60
2023/08/02 20:38:45;;;;;;;3.70;1.55;;;;;;;21.21;89.54;98652.56;20999030;28;20127;-60
2023/08/02 20:48:49;;;;;;;3.27;1.37;;;;;;;21.24;90.56;98657.56;21016134;28;20047;-60
2023/08/02 20:58:51;;;;;;;4.15;1.33;;;;;;;21.24;91.50;98649.44;21003033;28;20072;-60
2023/08/02 21:08:52;;;;;;;2.90;1.00;;;;;;;21.23;91.80;98650.50;20997227;28;20110;-60
2023/08/02 21:18:54;;;;;;;3.28;1.33;;;;;;;21.22;92.11;98629.88;20995053;28;20442;-60
2023/08/02 21:28:56;;;;;;;1.95;0.98;;;;;;;21.19;92.16;98627.56;20996116;28;20579;-60
2023/08/02 21:38:57;;;;;;;2.28;1.10;;;;;;;21.19;92.32;98622.16;21010571;28;20520;-60
2023/08/02 21:48:59;;;;;;;2.22;0.80;;;;;;;21.17;92.24;98621.56;21009370;28;20407;-60
2023/08/02 21:59:02;;;;;;;1.75;0.90;;;;;;;21.16;92.35;98606.34;21003078;28;20057;-60
2023/08/02 22:09:04;;;;;;;1.73;0.75;;;;;;;21.15;92.23;98594.72;21009738;28;20053;-60
2023/08/02 22:19:05;;;;;;;1.13;0.70;;;;;;;21.14;92.12;98587.66;21019745;28;20118;-60
2023/08/02 22:29:07;;;;;;;1.23;0.65;;;;;;;21.14;92.08;98592.22;21013894;28;20507;-60
2023/08/02 22:39:09;;;;;;;0.82;0.60;;;;;;;21.12;91.84;98586.19;21002943;28;20052;-60
2023/08/02 22:49:10;;;;;;;1.35;0.70;;;;;;;21.10;91.99;98580.16;21015743;28;20044;-60
2023/08/02 22:59:33;;;;;;;1.33;0.40;;;;;;;21.10;91.83;98563.94;20999238;28;20051;-60
2023/08/02 23:09:34;;;;;;;1.40;0.57;;;;;;;21.08;91.82;98556.06;21015691;28;20047;-60
2023/08/02 23:19:36;;;;;;;1.83;0.60;;;;;;;21.05;91.54;98536.69;21002451;28;20573;-60
2023/08/02 23:29:38;;;;;;;1.70;0.60;;;;;;;21.04;91.48;98537.75;20989343;28;20060;-60
2023/08/02 23:39:39;;;;;;;1.65;0.60;;;;;;;21.03;91.49;98531.53;21019486;28;20070;-60
2023/08/02 23:49:41;;;;;;;1.40;0.82;;;;;;;20.99;91.49;98514.88;20988464;28;20051;-60
2023/08/02 23:59:42;;;;;;;1.63;0.65;;;;;;;21.00;91.40;98511.13;21009083;28;20048;-60
